Time;durP1;ratioP1;P1;durP2;ratioP2;P2;SDS_P1;SDS_P2;PMS_P1;PMS_P2;Temp;Humidity;BMP_temperature;BMP_pressure;BME280_temperature;BME280_humidity;BME280_pressure;Samples;Min_cycle;Max_cycle;Signal;HPM_P1;HPM_P2
2023/03/02 00:01:41;;;;;;;7.65;5.90;;;-2.60;99.90;;;;;;5032723;28;20385;-86
2023/03/02 00:04:16;;;;;;;7.35;5.85;;;-2.50;99.90;;;;;;5032191;28;20416;-85
2023/03/02 00:06:42;;;;;;;10.98;7.05;;;-2.50;99.90;;;;;;5030790;28;20397;-85
2023/03/02 00:09:07;;;;;;;9.68;7.20;;;-2.50;99.90;;;;;;5031093;28;20892;-85
2023/03/02 00:11:36;;;;;;;11.05;7.80;;;-2.60;99.90;;;;;;5031162;28;20947;-87
2023/03/02 00:14:02;;;;;;;9.52;7.40;;;-2.60;99.90;;;;;;5031291;28;20420;-86
2023/03/02 00:16:28;;;;;;;11.10;7.97;;;-2.70;99.90;;;;;;5030945;28;20386;-87
2023/03/02 00:18:54;;;;;;;11.48;7.60;;;-2.60;99.90;;;;;;5030773;28;20378;-85
2023/03/02 00:21:20;;;;;;;9.68;7.05;;;-2.80;99.90;;;;;;5034234;28;20779;-84
2023/03/02 00:23:46;;;;;;;9.43;7.43;;;-2.70;99.90;;;;;;5031123;28;20924;-87
2023/03/02 00:26:11;;;;;;;9.20;7.35;;;-2.80;99.90;;;;;;5031935;28;20469;-83
2023/03/02 00:28:37;;;;;;;9.73;7.25;;;-2.90;99.90;;;;;;5030012;28;20464;-84
2023/03/02 00:31:04;;;;;;;8.27;7.35;;;-2.90;99.90;;;;;;5030736;28;20392;-87
2023/03/02 00:33:31;;;;;;;10.50;7.95;;;-2.80;99.90;;;;;;5030673;28;20374;-86
2023/03/02 00:35:56;;;;;;;10.10;7.72;;;-2.70;99.90;;;;;;5030212;28;20406;-85
2023/03/02 00:38:22;;;;;;;9.37;7.77;;;-2.80;99.90;;;;;;5031572;28;20370;-84
2023/03/02 00:40:48;;;;;;;8.90;7.43;;;-2.70;99.90;;;;;;5031135;28;20439;-86
2023/03/02 00:43:15;;;;;;;10.77;8.03;;;-2.70;99.90;;;;;;5030521;28;20380;-87
2023/03/02 00:45:41;;;;;;;8.97;7.87;;;-2.70;99.90;;;;;;5031983;28;20467;-85
2023/03/02 00:48:07;;;;;;;9.93;8.20;;;-2.80;99.90;;;;;;5029950;28;20898;-87
2023/03/02 00:50:39;;;;;;;11.90;8.90;;;-2.80;99.90;;;;;;5030532;28;20424;-84
2023/03/02 00:53:06;;;;;;;11.48;8.48;;;-2.90;99.90;;;;;;5030327;28;20385;-84
2023/03/02 00:55:32;;;;;;;11.85;8.23;;;-2.90;99.90;;;;;;5030062;28;20401;-84
2023/03/02 00:57:58;;;;;;;11.10;7.90;;;-2.80;99.90;;;;;;5029355;28;20843;-86
2023/03/02 01:00:26;;;;;;;10.93;8.90;;;-2.90;99.90;;;;;;5030136;28;20413;-86
2023/03/02 01:02:51;;;;;;;12.70;9.87;;;-3.00;99.90;;;;;;5029772;28;20891;-87
2023/03/02 01:05:17;;;;;;;13.53;10.33;;;-3.00;99.90;;;;;;5031647;28;20432;-87
2023/03/02 01:07:43;;;;;;;10.47;8.90;;;-3.00;99.90;;;;;;5031402;28;20385;-87
2023/03/02 01:10:09;;;;;;;11.57;9.95;;;-3.00;99.90;;;;;;5305106;22;20419;-83
2023/03/02 01:12:35;;;;;;;13.07;9.73;;;-3.00;99.90;;;;;;5050102;28;20718;-83
2023/03/02 01:15:02;;;;;;;11.20;9.20;;;-2.80;99.90;;;;;;5051069;28;20406;-83
2023/03/02 01:17:28;;;;;;;10.70;9.53;;;-2.80;99.90;;;;;;5050706;28;20463;-83
2023/03/02 01:19:54;;;;;;;12.37;9.40;;;-2.80;99.90;;;;;;5051787;28;20797;-82
2023/03/02 01:22:21;;;;;;;11.00;9.30;;;-2.80;99.90;;;;;;5049965;28;20385;-84
2023/03/02 01:24:46;;;;;;;10.43;9.30;;;-2.90;99.90;;;;;;5051764;28;20437;-83
2023/03/02 01:27:12;;;;;;;11.55;9.82;;;-3.10;99.90;;;;;;5050443;28;20396;-84
2023/03/02 01:29:38;;;;;;;12.27;9.23;;;-3.00;99.90;;;;;;5050261;28;20372;-86
2023/03/02 01:32:04;;;;;;;10.82;9.07;;;-2.90;99.90;;;;;;5053915;28;20376;-81
2023/03/02 01:34:29;;;;;;;11.95;9.65;;;-3.00;99.90;;;;;;5056069;28;20403;-84
2023/03/02 01:36:55;;;;;;;11.75;10.50;;;-3.10;99.90;;;;;;5052989;28;20383;-83
2023/03/02 01:39:21;;;;;;;12.30;11.00;;;-3.10;99.90;;;;;;5052087;28;20695;-85
2023/03/02 01:41:48;;;;;;;17.00;14.10;;;-3.20;99.90;;;;;;5053301;28;20872;-84
2023/03/02 01:44:33;;;;;;;17.70;15.23;;;-3.20;99.90;;;;;;5051056;28;20379;-83
2023/03/02 01:46:59;;;;;;;19.73;17.63;;;-3.10;99.90;;;;;;5049332;28;20380;-86
2023/03/02 01:49:25;;;;;;;19.63;16.73;;;-3.00;99.90;;;;;;5050801;28;20372;-84
2023/03/02 01:51:51;;;;;;;18.20;16.23;;;-3.20;99.90;;;;;;5050680;28;20376;-84
2023/03/02 01:54:21;;;;;;;18.75;15.93;;;-3.20;99.90;;;;;;5050726;28;20384;-85
2023/03/02 01:56:51;;;;;;;16.80;15.00;;;-3.30;99.90;;;;;;5050786;28;20384;-83
2023/03/02 01:59:21;;;;;;;16.42;14.73;;;-3.20;99.90;;;;;;5050809;28;20478;-83
2023/03/02 02:01:53;;;;;;;16.35;14.65;;;-3.10;99.90;;;;;;5049361;28;20399;-84
2023/03/02 02:04:20;;;;;;;16.08;14.38;;;-3.10;99.90;;;;;;5050686;28;20467;-85
2023/03/02 02:06:47;;;;;;;15.23;13.63;;;-3.00;99.90;;;;;;5051521;28;20372;-87
2023/03/02 02:09:16;;;;;;;15.20;13.07;;;-3.00;99.90;;;;;;5054341;28;20407;-83
2023/03/02 02:11:43;;;;;;;15.00;13.23;;;-3.10;99.90;;;;;;5050119;28;20429;-87
2023/03/02 02:14:09;;;;;;;13.75;12.27;;;-3.20;99.90;;;;;;5033827;28;20416;-85
2023/03/02 02:16:36;;;;;;;15.85;13.93;;;-3.20;99.90;;;;;;5031994;28;20397;-84
2023/03/02 02:19:09;;;;;;;15.05;12.85;;;-3.30;99.90;;;;;;5033995;28;20381;-84
2023/03/02 02:21:35;;;;;;;14.90;12.85;;;-3.40;99.90;;;;;;5033171;28;20376;-83
2023/03/02 02:24:10;;;;;;;15.02;13.10;;;-3.40;99.90;;;;;;5032613;28;20381;-84
2023/03/02 02:26:42;;;;;;;15.13;12.02;;;-3.30;99.90;;;;;;5030864;28;20499;-85
2023/03/02 02:29:17;;;;;;;12.98;11.40;;;-3.20;99.90;;;;;;5031312;28;20369;-84
2023/03/02 02:31:47;;;;;;;13.43;11.82;;;-3.20;99.90;;;;;;5029854;28;20703;-84
2023/03/02 02:34:44;;;;;;;13.63;12.10;;;-3.30;99.90;;;;;;5029982;28;20914;-86
2023/03/02 02:37:34;;;;;;;15.55;12.70;;;-3.30;99.90;;;;;;5029062;28;20445;-86
2023/03/02 02:40:06;;;;;;;14.85;12.10;;;-3.40;99.90;;;;;;5049976;28;20477;-85
2023/03/02 02:42:36;;;;;;;16.83;13.30;;;-3.50;99.90;;;;;;5048044;28;20850;-83
2023/03/02 02:45:06;;;;;;;16.35;13.45;;;-3.60;99.90;;;;;;5038273;28;20391;-85
2023/03/02 02:47:32;;;;;;;15.77;12.97;;;-3.70;99.90;;;;;;5042754;28;20918;-83
2023/03/02 02:49:58;;;;;;;14.68;13.02;;;-3.80;99.90;;;;;;5049711;28;20382;-84
2023/03/02 02:52:27;;;;;;;16.83;14.37;;;-3.80;99.90;;;;;;5050663;28;20869;-83
2023/03/02 02:54:55;;;;;;;16.33;13.70;;;-3.70;99.90;;;;;;5051360;28;20414;-85
2023/03/02 02:57:25;;;;;;;14.65;12.98;;;-3.80;99.90;;;;;;5049519;28;20420;-84
2023/03/02 02:59:55;;;;;;;14.98;12.57;;;-3.70;99.90;;;;;;5054961;28;20380;-83
2023/03/02 03:02:24;;;;;;;15.50;13.88;;;-3.50;99.90;;;;;;5053536;28;20475;-83
2023/03/02 03:04:50;;;;;;;16.35;13.23;;;-3.50;99.90;;;;;;5053809;28;20423;-83
2023/03/02 03:07:21;;;;;;;14.95;13.30;;;-3.40;99.90;;;;;;5055555;28;20474;-83
2023/03/02 03:10:18;;;;;;;15.10;13.43;;;-3.40;99.90;;;;;;5055947;28;20398;-82
2023/03/02 03:12:44;;;;;;;17.55;15.20;;;-3.50;99.90;;;;;;5053885;28;20400;-85
2023/03/02 03:15:11;;;;;;;18.13;15.15;;;-3.60;99.90;;;;;;5055321;28;20422;-83
2023/03/02 03:17:37;;;;;;;18.88;15.13;;;-3.60;99.90;;;;;;5056515;28;20381;-83
2023/03/02 03:20:09;;;;;;;17.57;15.70;;;-3.60;99.90;;;;;;5070276;28;20387;-83
2023/03/02 03:22:37;;;;;;;19.92;17.30;;;-3.40;99.90;;;;;;5068810;28;20375;-82
2023/03/02 03:25:03;;;;;;;19.38;16.70;;;-3.60;99.90;;;;;;5060850;28;20364;-83
2023/03/02 03:27:28;;;;;;;18.00;15.57;;;-3.70;99.90;;;;;;5051310;28;20457;-85
2023/03/02 03:29:54;;;;;;;20.53;16.73;;;-3.70;99.90;;;;;;5065726;28;20793;-86
2023/03/02 03:32:20;;;;;;;18.13;15.90;;;-3.70;99.90;;;;;;5049646;28;20443;-85
2023/03/02 03:34:46;;;;;;;17.23;14.77;;;-3.80;99.90;;;;;;5049104;28;20453;-84
2023/03/02 03:37:16;;;;;;;16.80;14.85;;;-3.60;99.90;;;;;;5048838;28;20376;-84
2023/03/02 03:39:42;;;;;;;16.48;14.18;;;-3.90;99.90;;;;;;5057147;28;20783;-83
2023/03/02 03:42:08;;;;;;;15.07;12.93;;;-4.00;99.90;;;;;;5058513;28;20404;-82
2023/03/02 03:44:34;;;;;;;16.80;13.40;;;-3.90;99.90;;;;;;5056716;28;20383;-84
2023/03/02 03:47:00;;;;;;;15.50;13.17;;;-3.80;99.90;;;;;;5052184;28;20526;-84
2023/03/02 03:49:26;;;;;;;15.40;12.60;;;-3.80;99.90;;;;;;5051882;28;20412;-83
2023/03/02 03:51:52;;;;;;;16.38;12.65;;;-3.90;99.90;;;;;;5048401;28;20888;-82
2023/03/02 03:54:18;;;;;;;15.35;12.10;;;-3.90;99.90;;;;;;5052934;28;20387;-84
2023/03/02 03:56:46;;;;;;;15.80;12.87;;;-3.90;99.90;;;;;;5050749;28;20465;-83
2023/03/02 03:59:16;;;;;;;14.65;12.23;;;-3.90;99.90;;;;;;5053260;28;20458;-83
2023/03/02 04:01:45;;;;;;;16.85;13.35;;;-3.90;99.90;;;;;;5051320;28;20464;-85
2023/03/02 04:04:17;;;;;;;14.10;12.38;;;-3.90;99.90;;;;;;5067622;28;20463;-83
2023/03/02 04:06:46;;;;;;;15.73;13.23;;;-4.00;99.90;;;;;;5050329;28;20445;-84
2023/03/02 04:09:14;;;;;;;15.45;13.18;;;-4.10;99.90;;;;;;5039769;28;20484;-85
2023/03/02 04:11:41;;;;;;;15.50;12.10;;;-4.00;99.90;;;;;;5041921;28;20507;-82
2023/03/02 04:14:08;;;;;;;15.52;12.98;;;-3.80;99.90;;;;;;5053090;28;20475;-83
2023/03/02 04:16:35;;;;;;;15.27;13.05;;;-3.90;99.90;;;;;;5049664;28;20770;-86
2023/03/02 04:19:01;;;;;;;16.30;13.48;;;-3.70;99.90;;;;;;5052293;28;20407;-85
2023/03/02 04:21:27;;;;;;;16.77;13.70;;;-3.90;99.90;;;;;;5053156;28;20481;-84
2023/03/02 04:23:53;;;;;;;17.55;13.65;;;-3.90;99.90;;;;;;5056581;28;20382;-84
2023/03/02 04:26:19;;;;;;;16.92;14.38;;;-4.00;99.90;;;;;;5051307;28;20392;-83
2023/03/02 04:28:49;;;;;;;19.17;14.87;;;-4.00;99.90;;;;;;5054136;28;21093;-82
2023/03/02 04:31:15;;;;;;;17.08;14.35;;;-4.00;99.90;;;;;;5055915;28;20403;-84
2023/03/02 04:33:41;;;;;;;17.25;14.07;;;-4.00;99.90;;;;;;5054885;28;20711;-82
2023/03/02 04:36:07;;;;;;;18.47;14.77;;;-3.90;99.90;;;;;;5041637;28;20440;-85
2023/03/02 04:38:33;;;;;;;21.50;15.25;;;-4.00;99.90;;;;;;5051171;28;20364;-84
2023/03/02 04:40:59;;;;;;;18.05;14.18;;;-4.20;99.90;;;;;;5056374;28;20407;-84
2023/03/02 04:43:25;;;;;;;18.58;14.77;;;-4.00;99.90;;;;;;5055582;28;20380;-85
2023/03/02 04:45:53;;;;;;;20.98;16.90;;;-4.00;99.90;;;;;;5055968;28;20380;-84
2023/03/02 04:48:20;;;;;;;21.02;16.48;;;-4.20;99.90;;;;;;5054949;28;20416;-85
2023/03/02 04:50:46;;;;;;;16.60;13.83;;;-4.10;99.90;;;;;;5055562;28;20903;-85
2023/03/02 04:53:12;;;;;;;18.67;14.83;;;-4.10;99.90;;;;;;5053141;28;20401;-84
2023/03/02 04:55:38;;;;;;;19.43;15.00;;;-3.90;99.90;;;;;;5051396;28;20400;-86
2023/03/02 04:58:04;;;;;;;20.58;15.80;;;-3.90;99.90;;;;;;5055175;28;20368;-85
2023/03/02 05:00:32;;;;;;;26.27;19.42;;;-3.90;99.90;;;;;;5054253;28;20384;-83
2023/03/02 05:03:05;;;;;;;25.67;18.83;;;-3.80;99.90;;;;;;5051360;28;20934;-84
2023/03/02 05:05:30;;;;;;;39.70;26.90;;;-3.60;99.90;;;;;;5055695;28;20364;-84
2023/03/02 05:07:59;;;;;;;36.10;25.00;;;-3.50;99.90;;;;;;5053325;28;20381;-85
2023/03/02 05:10:26;;;;;;;44.33;29.30;;;-3.30;99.90;;;;;;5056379;28;20414;-83
2023/03/02 05:13:03;;;;;;;50.60;32.25;;;-3.10;99.90;;;;;;5063479;28;20408;-83
2023/03/02 05:15:36;;;;;;;55.13;35.77;;;-2.90;99.90;;;;;;5056093;28;20503;-85
2023/03/02 05:18:05;;;;;;;61.00;37.88;;;-2.60;99.90;;;;;;5055003;28;20380;-84
2023/03/02 05:20:30;;;;;;;56.53;38.67;;;-2.40;99.90;;;;;;5054776;28;20469;-83
2023/03/02 05:23:03;;;;;;;65.97;41.43;;;-2.40;99.90;;;;;;5054156;28;20379;-87
2023/03/02 05:25:30;;;;;;;66.43;40.67;;;-2.30;99.90;;;;;;5053794;28;20394;-83
2023/03/02 05:27:56;;;;;;;67.40;41.60;;;-2.20;99.90;;;;;;5055047;28;20372;-82
2023/03/02 05:30:23;;;;;;;75.43;44.07;;;-2.20;99.90;;;;;;5054808;28;20400;-86
2023/03/02 05:32:49;;;;;;;75.43;45.80;;;-2.10;99.90;;;;;;5057435;28;20525;-83
2023/03/02 05:35:16;;;;;;;75.57;46.10;;;-2.00;99.90;;;;;;5057917;28;20414;-83
2023/03/02 05:37:46;;;;;;;77.38;47.22;;;-1.90;99.90;;;;;;5057637;28;20542;-84
2023/03/02 05:40:16;;;;;;;76.80;48.90;;;-2.00;99.90;;;;;;5058481;28;20375;-83
2023/03/02 05:42:42;;;;;;;77.45;47.03;;;-2.10;99.90;;;;;;5057517;28;20415;-82
2023/03/02 05:45:12;;;;;;;76.38;47.28;;;-2.00;99.90;;;;;;5054479;28;20391;-82
2023/03/02 05:47:38;;;;;;;85.75;50.75;;;-1.90;99.90;;;;;;5051449;28;20486;-83
2023/03/02 05:50:04;;;;;;;76.17;48.73;;;-2.00;99.90;;;;;;5053206;28;20423;-82
2023/03/02 05:52:29;;;;;;;84.93;50.55;;;-1.90;99.90;;;;;;5053567;28;20372;-84
2023/03/02 05:54:55;;;;;;;71.90;48.35;;;-2.00;99.90;;;;;;5058317;28;20400;-84
2023/03/02 05:57:20;;;;;;;85.33;50.87;;;-1.80;99.90;;;;;;5052144;28;20434;-84
2023/03/02 05:59:46;;;;;;;98.10;51.33;;;-1.90;99.90;;;;;;5053972;28;20372;-86
2023/03/02 06:02:12;;;;;;;83.33;51.17;;;-1.80;99.90;;;;;;5055044;28;20897;-87
2023/03/02 06:04:42;;;;;;;86.82;51.65;;;-1.80;99.90;;;;;;5056305;28;20866;-85
2023/03/02 06:07:11;;;;;;;91.85;53.33;;;-1.80;99.90;;;;;;5063531;28;20403;-84
2023/03/02 06:09:40;;;;;;;80.55;50.17;;;-1.80;99.90;;;;;;5070781;28;20424;-84
2023/03/02 06:12:07;;;;;;;75.63;49.67;;;-1.70;99.90;;;;;;5063595;28;20903;-84
2023/03/02 06:14:34;;;;;;;86.63;49.17;;;-1.60;99.90;;;;;;5058664;28;20415;-85
2023/03/02 06:17:00;;;;;;;86.75;51.35;;;-1.60;99.90;;;;;;5057328;28;20392;-83
2023/03/02 06:19:26;;;;;;;85.82;52.17;;;-1.60;99.90;;;;;;5058330;28;20427;-82
2023/03/02 06:21:51;;;;;;;78.03;50.03;;;-1.60;99.90;;;;;;5060352;28;20371;-85
2023/03/02 06:24:17;;;;;;;75.57;48.23;;;-1.70;99.90;;;;;;5059050;28;20433;-81
2023/03/02 06:26:43;;;;;;;71.45;47.20;;;-1.60;99.90;;;;;;5056005;28;20395;-82
2023/03/02 06:29:09;;;;;;;76.47;47.20;;;-1.50;99.90;;;;;;5059375;28;20407;-81
2023/03/02 06:31:35;;;;;;;70.20;46.93;;;-1.50;99.90;;;;;;5058597;28;21012;-83
2023/03/02 06:34:00;;;;;;;69.50;47.13;;;-1.40;99.90;;;;;;5058837;28;20472;-82
2023/03/02 06:36:27;;;;;;;67.53;45.57;;;-1.50;99.90;;;;;;5059554;28;20403;-81
2023/03/02 06:38:53;;;;;;;67.32;45.20;;;-1.40;99.90;;;;;;5057408;28;20396;-84
2023/03/02 06:41:19;;;;;;;60.42;43.53;;;-1.30;99.90;;;;;;5056470;28;20711;-84
2023/03/02 06:43:45;;;;;;;89.28;48.50;;;-1.20;99.90;;;;;;5056592;28;20386;-84
2023/03/02 06:46:11;;;;;;;72.90;45.70;;;-1.40;99.90;;;;;;5055393;28;20471;-83
2023/03/02 06:48:37;;;;;;;66.40;45.10;;;-1.40;99.90;;;;;;5053192;28;20423;-82
2023/03/02 06:51:03;;;;;;;73.47;44.65;;;-1.40;99.90;;;;;;5055861;28;20383;-82
2023/03/02 06:53:29;;;;;;;65.57;44.60;;;-1.40;99.90;;;;;;5058013;28;20391;-83
2023/03/02 06:55:54;;;;;;;63.40;44.33;;;-1.40;99.90;;;;;;5053008;28;21278;-84
2023/03/02 06:58:20;;;;;;;62.60;43.17;;;-1.40;99.90;;;;;;5050514;28;20388;-85
2023/03/02 07:00:45;;;;;;;64.83;43.50;;;-1.30;99.90;;;;;;5051105;28;20376;-83
2023/03/02 07:03:11;;;;;;;77.30;45.70;;;-1.20;99.90;;;;;;5052901;28;20463;-84
2023/03/02 07:05:37;;;;;;;83.27;46.67;;;-1.20;99.90;;;;;;5051280;28;20398;-84
2023/03/02 07:08:03;;;;;;;59.90;42.73;;;-1.20;99.90;;;;;;5049517;28;20503;-86
2023/03/02 07:10:29;;;;;;;60.38;42.72;;;-1.10;99.90;;;;;;5052083;28;20390;-83
2023/03/02 07:12:55;;;;;;;63.30;41.97;;;-0.80;99.90;;;;;;5052980;28;20463;-84
2023/03/02 07:15:21;;;;;;;58.03;40.63;;;-0.90;99.90;;;;;;5054594;28;20408;-85
2023/03/02 07:17:47;;;;;;;57.25;38.08;;;-0.70;99.90;;;;;;5050861;28;20778;-85
2023/03/02 07:20:17;;;;;;;54.00;39.03;;;-0.50;99.90;;;;;;5053279;28;21138;-81
2023/03/02 07:22:53;;;;;;;95.03;41.72;;;-0.40;99.90;;;;;;5055954;28;20375;-83
2023/03/02 07:25:19;;;;;;;58.55;39.83;;;-0.60;99.90;;;;;;5057128;28;20386;-83
2023/03/02 07:27:44;;;;;;;55.63;38.13;;;-0.40;99.90;;;;;;5049894;28;20774;-85
2023/03/02 07:30:11;;;;;;;52.85;37.92;;;-0.50;99.90;;;;;;5050981;28;20398;-82
2023/03/02 07:32:36;;;;;;;56.75;37.08;;;-0.60;99.90;;;;;;5053010;28;20363;-86
2023/03/02 07:35:02;;;;;;;51.10;36.87;;;-0.70;99.90;;;;;;5054240;28;20407;-84
2023/03/02 07:37:28;;;;;;;52.63;37.23;;;-0.70;99.90;;;;;;5051828;28;20461;-84
2023/03/02 07:39:54;;;;;;;51.70;36.55;;;-0.80;99.90;;;;;;5053818;28;20380;-84
2023/03/02 07:42:20;;;;;;;59.95;38.70;;;-0.60;99.90;;;;;;5052659;28;20816;-81
2023/03/02 07:44:46;;;;;;;54.35;37.33;;;-0.60;99.90;;;;;;5052603;28;20787;-82
2023/03/02 07:47:11;;;;;;;49.45;35.97;;;-0.50;99.90;;;;;;5052348;28;20402;-84
2023/03/02 07:49:38;;;;;;;53.80;36.65;;;-0.60;99.90;;;;;;5054502;28;20495;-81
2023/03/02 07:52:04;;;;;;;63.08;38.30;;;-0.40;99.90;;;;;;5055019;28;20433;-82
2023/03/02 07:54:29;;;;;;;56.33;38.40;;;-0.40;99.90;;;;;;5052099;28;20422;-79
2023/03/02 07:56:56;;;;;;;53.57;36.73;;;-0.40;99.90;;;;;;5049549;28;20407;-82
2023/03/02 07:59:23;;;;;;;58.60;38.60;;;-0.50;99.90;;;;;;5049993;28;20402;-82
2023/03/02 08:01:50;;;;;;;51.50;36.70;;;-0.30;99.90;;;;;;5057919;28;20378;-83
2023/03/02 08:04:15;;;;;;;49.28;35.72;;;-0.20;99.90;;;;;;5055706;28;20383;-83
2023/03/02 08:06:41;;;;;;;49.80;35.57;;;-0.10;99.90;;;;;;5051338;28;20966;-82
2023/03/02 08:09:07;;;;;;;50.53;34.92;;;-0.20;99.90;;;;;;5051693;28;20388;-84
2023/03/02 08:11:33;;;;;;;50.50;34.38;;;-0.10;99.90;;;;;;5050103;28;20428;-84
2023/03/02 08:14:00;;;;;;;46.07;33.70;;;-0.10;99.90;;;;;;5050126;28;20400;-82
2023/03/02 08:16:26;;;;;;;45.08;33.70;;;0.10;99.90;;;;;;5049654;28;20422;-84
2023/03/02 08:18:52;;;;;;;42.38;31.00;;;0.10;99.90;;;;;;5053024;28;20826;-80
2023/03/02 08:21:20;;;;;;;47.30;33.15;;;0.20;99.90;;;;;;5051044;28;20400;-78
2023/03/02 08:23:46;;;;;;;44.10;31.37;;;0.30;99.90;;;;;;5050345;28;20390;-83
2023/03/02 08:26:13;;;;;;;46.13;33.83;;;0.50;99.90;;;;;;5056010;28;20379;-82
2023/03/02 08:28:39;;;;;;;41.85;32.42;;;0.10;99.90;;;;;;5049693;28;20422;-80
2023/03/02 08:31:06;;;;;;;42.88;33.65;;;0.40;99.90;;;;;;5054313;28;20379;-82
2023/03/02 08:33:32;;;;;;;42.67;32.70;;;0.40;99.90;;;;;;5053937;28;20874;-81
2023/03/02 08:36:02;;;;;;;60.97;34.58;;;0.40;99.90;;;;;;5053106;28;20420;-82
2023/03/02 08:38:29;;;;;;;47.43;34.00;;;0.10;99.90;;;;;;5054149;28;20396;-82
2023/03/02 08:40:55;;;;;;;49.22;32.30;;;0.10;99.90;;;;;;5054587;28;20446;-83
2023/03/02 08:43:22;;;;;;;48.27;33.50;;;0.40;99.90;;;;;;5038954;28;20971;-84
2023/03/02 08:45:52;;;;;;;44.58;33.05;;;0.30;99.90;;;;;;5046075;28;20405;-83
2023/03/02 08:48:22;;;;;;;44.42;33.53;;;0.30;99.90;;;;;;5049445;28;20406;-85
2023/03/02 08:51:02;;;;;;;42.10;31.70;;;0.50;99.90;;;;;;5054813;28;20388;-84
2023/03/02 08:53:31;;;;;;;39.88;32.05;;;0.50;99.90;;;;;;5052164;28;20490;-84
2023/03/02 08:55:57;;;;;;;38.35;30.98;;;0.50;99.90;;;;;;5057000;28;20412;-81
2023/03/02 08:58:23;;;;;;;38.53;29.63;;;0.70;99.90;;;;;;5063391;28;20372;-84
2023/03/02 09:00:50;;;;;;;40.10;30.90;;;0.80;99.90;;;;;;5081156;28;20428;-82
2023/03/02 09:03:16;;;;;;;38.33;30.60;;;0.80;99.90;;;;;;5054987;28;20441;-84
2023/03/02 09:05:42;;;;;;;35.40;28.63;;;1.00;99.90;;;;;;5033813;28;20389;-82
2023/03/02 09:08:08;;;;;;;35.90;28.73;;;1.20;99.90;;;;;;5033042;28;20377;-82
2023/03/02 09:10:34;;;;;;;34.35;28.33;;;1.20;99.90;;;;;;5051943;28;20384;-81
2023/03/02 09:13:00;;;;;;;31.70;27.15;;;1.00;99.90;;;;;;5046933;28;20404;-81
2023/03/02 09:15:26;;;;;;;33.97;26.95;;;1.00;99.90;;;;;;5052697;28;20428;-83
2023/03/02 09:17:52;;;;;;;36.75;28.60;;;0.90;99.90;;;;;;5052639;28;20441;-82
2023/03/02 09:20:18;;;;;;;39.03;29.08;;;1.00;99.90;;;;;;5038797;28;20888;-82
2023/03/02 09:22:47;;;;;;;39.00;29.97;;;0.70;99.90;;;;;;5032571;28;20395;-81
2023/03/02 09:25:14;;;;;;;34.40;28.80;;;0.90;99.90;;;;;;5051413;28;20400;-81
2023/03/02 09:27:40;;;;;;;35.08;28.65;;;1.20;99.90;;;;;;5052839;28;20393;-83
2023/03/02 09:30:07;;;;;;;35.57;28.90;;;1.30;99.90;;;;;;5053312;28;20368;-83
2023/03/02 09:32:33;;;;;;;34.78;27.77;;;1.20;99.90;;;;;;5044444;28;20461;-83
2023/03/02 09:34:59;;;;;;;37.67;28.23;;;1.00;99.90;;;;;;5052755;28;20407;-83
2023/03/02 09:37:26;;;;;;;30.63;26.23;;;1.00;99.90;;;;;;5050252;28;20898;-80
2023/03/02 09:39:51;;;;;;;28.85;25.00;;;1.20;99.90;;;;;;5068063;28;20374;-84
2023/03/02 09:42:48;;;;;;;30.33;25.60;;;1.40;99.90;;;;;;5069822;28;20378;-81
2023/03/02 09:45:31;;;;;;;28.42;24.17;;;1.40;99.90;;;;;;5056580;28;20935;-83
2023/03/02 09:48:14;;;;;;;27.13;24.15;;;1.50;99.90;;;;;;5049218;28;20482;-83
2023/03/02 09:50:51;;;;;;;28.13;23.88;;;1.80;99.90;;;;;;5050676;28;20372;-81
2023/03/02 09:53:25;;;;;;;26.52;23.02;;;1.60;99.90;;;;;;5051500;28;20439;-82
2023/03/02 09:55:59;;;;;;;26.00;22.65;;;2.00;99.90;;;;;;5048413;28;20985;-83
2023/03/02 09:58:30;;;;;;;25.60;22.80;;;2.10;99.90;;;;;;5044731;28;20475;-82
2023/03/02 10:01:02;;;;;;;26.17;21.75;;;2.20;99.90;;;;;;5037209;28;20987;-82
2023/03/02 10:03:37;;;;;;;24.50;21.53;;;2.20;99.90;;;;;;5048889;28;21009;-82
2023/03/02 10:06:03;;;;;;;25.10;22.35;;;2.40;99.90;;;;;;5047143;28;20473;-82
2023/03/02 10:08:33;;;;;;;24.98;21.60;;;2.30;99.90;;;;;;5049133;28;20449;-82
2023/03/02 10:11:06;;;;;;;23.23;20.65;;;2.20;99.90;;;;;;5043860;28;20473;-82
2023/03/02 10:13:45;;;;;;;22.83;20.42;;;2.40;99.90;;;;;;5048721;28;20471;-83
2023/03/02 10:16:47;;;;;;;23.35;20.85;;;2.50;99.90;;;;;;5045795;28;20408;-84
2023/03/02 10:19:31;;;;;;;22.60;20.17;;;2.30;99.90;;;;;;5047822;28;20546;-80
2023/03/02 10:22:37;;;;;;;23.95;20.75;;;2.20;99.90;;;;;;5048958;28;20379;-82
2023/03/02 10:25:25;;;;;;;22.33;19.92;;;1.90;99.90;;;;;;5027244;28;20373;-83
2023/03/02 10:28:08;;;;;;;22.30;19.83;;;2.20;99.90;;;;;;5028234;28;20442;-84
2023/03/02 10:30:37;;;;;;;22.48;20.17;;;2.20;99.90;;;;;;5045700;28;20966;-82
2023/03/02 10:33:15;;;;;;;24.02;20.70;;;2.00;99.90;;;;;;5042137;28;20479;-83
2023/03/02 10:35:47;;;;;;;22.07;19.73;;;2.00;99.90;;;;;;5042925;28;20403;-83
2023/03/02 10:38:16;;;;;;;20.27;18.17;;;2.10;99.90;;;;;;5033522;28;20855;-83
2023/03/02 10:40:48;;;;;;;22.83;20.38;;;2.40;99.90;;;;;;5032159;28;20385;-82
2023/03/02 10:43:32;;;;;;;22.00;19.60;;;2.30;99.90;;;;;;5035908;28;20411;-84
2023/03/02 10:45:59;;;;;;;21.45;18.92;;;2.20;99.90;;;;;;5038698;28;20411;-83
2023/03/02 10:48:29;;;;;;;22.27;19.92;;;2.50;99.90;;;;;;5040163;28;20388;-84
2023/03/02 10:50:57;;;;;;;23.47;20.97;;;2.10;99.90;;;;;;5041161;28;20389;-84
2023/03/02 10:53:23;;;;;;;22.10;19.73;;;2.20;99.90;;;;;;5035667;28;20406;-83
2023/03/02 10:55:52;;;;;;;23.77;21.17;;;2.30;99.90;;;;;;5047617;28;20408;-85
2023/03/02 10:58:29;;;;;;;25.15;22.45;;;1.90;99.90;;;;;;5047964;28;20468;-81
2023/03/02 11:01:02;;;;;;;24.10;21.65;;;1.70;99.90;;;;;;5048581;28;20458;-83
2023/03/02 11:03:29;;;;;;;23.60;21.10;;;1.90;99.90;;;;;;5051242;28;20388;-83
2023/03/02 11:05:56;;;;;;;21.35;19.05;;;2.40;99.90;;;;;;5052036;28;20379;-84
2023/03/02 11:08:27;;;;;;;21.58;19.27;;;2.60;99.90;;;;;;5050655;28;20423;-82
2023/03/02 11:11:02;;;;;;;20.73;18.55;;;3.00;99.90;;;;;;5051723;28;20549;-82
2023/03/02 11:13:31;;;;;;;20.97;18.83;;;3.10;99.90;;;;;;5045203;28;20403;-81
2023/03/02 11:16:20;;;;;;;20.27;18.17;;;3.30;99.90;;;;;;5053248;28;20416;-82
2023/03/02 11:18:46;;;;;;;22.17;19.97;;;3.40;99.90;;;;;;5050567;28;20434;-83
2023/03/02 11:21:36;;;;;;;36.53;31.63;;;3.00;99.90;;;;;;5049662;28;20442;-82
2023/03/02 11:24:17;;;;;;;20.55;18.45;;;2.70;99.90;;;;;;5044344;28;20398;-84
2023/03/02 11:26:51;;;;;;;20.60;18.50;;;2.60;99.90;;;;;;5049133;28;20601;-80
2023/03/02 11:29:42;;;;;;;20.52;18.33;;;2.60;99.90;;;;;;5048846;28;20367;-81
2023/03/02 11:32:51;;;;;;;20.50;18.40;;;2.50;99.90;;;;;;5048656;28;20373;-85
2023/03/02 11:35:50;;;;;;;23.00;20.50;;;2.60;99.90;;;;;;5042731;28;20875;-81
2023/03/02 11:38:25;;;;;;;23.67;21.25;;;2.30;99.90;;;;;;5053955;28;20934;-82
2023/03/02 11:41:17;;;;;;;21.45;19.00;;;2.50;99.90;;;;;;5053587;28;20388;-86
2023/03/02 11:43:43;;;;;;;19.58;17.58;;;2.80;99.90;;;;;;5049542;28;20742;-81
2023/03/02 11:46:18;;;;;;;20.17;18.05;;;3.00;99.90;;;;;;5053870;28;20414;-84
2023/03/02 11:48:48;;;;;;;23.10;20.70;;;3.20;99.90;;;;;;5060713;28;20380;-81
2023/03/02 11:51:20;;;;;;;20.70;18.55;;;3.10;99.90;;;;;;5066072;28;20415;-83
2023/03/02 11:53:58;;;;;;;21.13;18.93;;;3.00;99.90;;;;;;5058908;28;20476;-81
2023/03/02 11:56:32;;;;;;;21.23;18.95;;;3.20;99.90;;;;;;5052003;28;20408;-83
2023/03/02 11:59:03;;;;;;;19.33;17.40;;;3.30;99.90;;;;;;5051789;28;20474;-84
2023/03/02 12:01:30;;;;;;;19.85;17.75;;;3.40;99.90;;;;;;5051527;28;20408;-82
2023/03/02 12:04:09;;;;;;;20.80;18.60;;;3.50;99.90;;;;;;5050672;28;20388;-84
2023/03/02 12:06:40;;;;;;;20.98;18.77;;;3.80;99.90;;;;;;5049864;28;20375;-83
2023/03/02 12:09:24;;;;;;;20.80;18.70;;;3.80;99.90;;;;;;5050441;28;20392;-83
2023/03/02 12:12:17;;;;;;;20.45;18.35;;;3.50;99.90;;;;;;5052646;28;20396;-85
2023/03/02 12:14:44;;;;;;;20.23;18.10;;;3.70;99.90;;;;;;5042941;28;20403;-84
2023/03/02 12:17:15;;;;;;;20.33;18.23;;;4.00;99.90;;;;;;5046853;28;20414;-81
2023/03/02 12:19:44;;;;;;;20.05;17.98;;;4.00;99.90;;;;;;5047776;28;20368;-81
2023/03/02 12:22:11;;;;;;;19.10;17.10;;;3.90;99.90;;;;;;5043344;28;20404;-80
2023/03/02 12:24:39;;;;;;;19.80;17.80;;;3.90;99.90;;;;;;5047041;28;20461;-82
2023/03/02 12:27:25;;;;;;;21.30;19.05;;;4.00;99.90;;;;;;5052840;28;20388;-82
2023/03/02 12:30:07;;;;;;;21.97;19.67;;;3.50;99.90;;;;;;5049109;28;20400;-82
2023/03/02 12:32:32;;;;;;;21.75;19.55;;;3.50;99.90;;;;;;5050416;28;20897;-82
2023/03/02 12:35:07;;;;;;;21.27;19.08;;;3.40;99.90;;;;;;5051217;28;20407;-82
2023/03/02 12:37:55;;;;;;;22.13;19.90;;;3.40;99.90;;;;;;5050755;28;20457;-83
2023/03/02 12:40:45;;;;;;;21.45;19.25;;;3.50;99.90;;;;;;5049501;28;20404;-84
2023/03/02 12:43:17;;;;;;;19.95;17.95;;;3.80;99.90;;;;;;5051128;28;20437;-85
2023/03/02 12:46:03;;;;;;;21.45;19.25;;;3.90;99.90;;;;;;5051039;28;20923;-83